LVLHI SAEZ-SADF
Flight info
| Callsign | LVLHI |
|---|---|
| Flight time | 0h 13m |
| Altitude | 4000 |
| Route | PAL DCT TRINI |
| Aircraft | B58T/L-SDFGRY/C |
Departure
| Time | 2026-04-28 23:30 |
|---|---|
| Airport | Ezeiza International Airport - Ministro Pistarini (SAEZ) |
Arrival
| Time | 2026-04-28 23:44 |
|---|---|
| Airport | San Fernando Airport (SADF) |
| Time | Latitude | Longitude | Altitude | Speed | Heading |
|---|---|---|---|---|---|
| 2026-04-28 23:04 | -34.79682 | -58.52837 | 69 ft | 0 kts | 46° |
| 2026-04-28 23:10 | -34.79683 | -58.52837 | 97 ft | 0 kts | 46° |
| 2026-04-28 23:12 | -34.79682 | -58.52837 | 97 ft | 1 kts | 46° |
| 2026-04-28 23:12 | -34.79702 | -58.52853 | 64 ft | 13 kts | 239° |
| 2026-04-28 23:12 | -34.79791 | -58.52977 | 68 ft | 26 kts | 224° |
| 2026-04-28 23:12 | -34.79946 | -58.53165 | 68 ft | 37 kts | 224° |
| 2026-04-28 23:13 | -34.80134 | -58.53395 | 67 ft | 40 kts | 224° |
| 2026-04-28 23:13 | -34.80330 | -58.53631 | 69 ft | 27 kts | 224° |
| 2026-04-28 23:13 | -34.80428 | -58.53718 | 69 ft | 18 kts | 215° |
| 2026-04-28 23:13 | -34.80574 | -58.53734 | 69 ft | 14 kts | 171° |
| 2026-04-28 23:14 | -34.80709 | -58.53690 | 65 ft | 26 kts | 164° |
| 2026-04-28 23:14 | -34.80902 | -58.53621 | 63 ft | 32 kts | 163° |
| 2026-04-28 23:14 | -34.81060 | -58.53567 | 70 ft | 21 kts | 162° |
| 2026-04-28 23:14 | -34.81188 | -58.53587 | 68 ft | 18 kts | 191° |
| 2026-04-28 23:15 | -34.81313 | -58.53588 | 70 ft | 18 kts | 181° |
| 2026-04-28 23:15 | -34.81442 | -58.53615 | 66 ft | 20 kts | 198° |
| 2026-04-28 23:15 | -34.81569 | -58.53697 | 69 ft | 18 kts | 218° |
| 2026-04-28 23:15 | -34.81664 | -58.53769 | 65 ft | 15 kts | 165° |
| 2026-04-28 23:16 | -34.81753 | -58.53715 | 69 ft | 14 kts | 155° |
| 2026-04-28 23:16 | -34.81841 | -58.53666 | 69 ft | 14 kts | 153° |
| 2026-04-28 23:16 | -34.81916 | -58.53602 | 66 ft | 9 kts | 198° |
| 2026-04-28 23:16 | -34.81927 | -58.53612 | 70 ft | 0 kts | 183° |
| 2026-04-28 23:17 | -34.81931 | -58.53611 | 70 ft | 0 kts | 157° |
| 2026-04-28 23:19 | -34.81928 | -58.53592 | 70 ft | 7 kts | 52° |
| 2026-04-28 23:19 | -34.81927 | -58.53517 | 66 ft | 12 kts | 105° |
| 2026-04-28 23:19 | -34.81950 | -58.53394 | 70 ft | 18 kts | 101° |
| 2026-04-28 23:20 | -34.81982 | -58.53231 | 68 ft | 21 kts | 108° |
| 2026-04-28 23:20 | -34.82008 | -58.53112 | 71 ft | 0 kts | 105° |
| 2026-04-28 23:26 | -34.82018 | -58.53057 | 73 ft | 12 kts | 99° |
| 2026-04-28 23:26 | -34.82097 | -58.52956 | 74 ft | 23 kts | 161° |
| 2026-04-28 23:27 | -34.82280 | -58.52892 | 77 ft | 32 kts | 164° |
| 2026-04-28 23:27 | -34.82505 | -58.52814 | 75 ft | 32 kts | 164° |
| 2026-04-28 23:27 | -34.82721 | -58.52738 | 74 ft | 33 kts | 162° |
| 2026-04-28 23:27 | -34.82943 | -58.52661 | 75 ft | 34 kts | 166° |
| 2026-04-28 23:28 | -34.83165 | -58.52583 | 72 ft | 31 kts | 162° |
| 2026-04-28 23:28 | -34.83298 | -58.52513 | 74 ft | 17 kts | 6° |
| 2026-04-28 23:28 | -34.83228 | -58.52563 | 77 ft | 6 kts | 343° |
| 2026-04-28 23:28 | -34.83226 | -58.52564 | 77 ft | 0 kts | 343° |
| 2026-04-28 23:29 | -34.83167 | -58.52584 | 77 ft | 35 kts | 345° |
| 2026-04-28 23:30 | -34.82640 | -58.52765 | 109 ft | 112 kts | 345° |
| 2026-04-28 23:30 | -34.81818 | -58.53038 | 388 ft | 129 kts | 346° |
| 2026-04-28 23:30 | -34.80932 | -58.53327 | 720 ft | 139 kts | 344° |
| 2026-04-28 23:30 | -34.79973 | -58.53650 | 1056 ft | 145 kts | 341° |
| 2026-04-28 23:31 | -34.78988 | -58.53988 | 1435 ft | 147 kts | 339° |
| 2026-04-28 23:31 | -34.78013 | -58.54326 | 1892 ft | 143 kts | 338° |
| 2026-04-28 23:31 | -34.77056 | -58.54662 | 2325 ft | 142 kts | 339° |
| 2026-04-28 23:31 | -34.76115 | -58.55026 | 2739 ft | 143 kts | 334° |
| 2026-04-28 23:32 | -34.75178 | -58.55430 | 3147 ft | 142 kts | 334° |
| 2026-04-28 23:32 | -34.74232 | -58.55846 | 3421 ft | 145 kts | 334° |
| 2026-04-28 23:32 | -34.73266 | -58.56233 | 3715 ft | 148 kts | 336° |
| 2026-04-28 23:32 | -34.72252 | -58.56569 | 3925 ft | 153 kts | 338° |
| 2026-04-28 23:33 | -34.71219 | -58.56892 | 4125 ft | 159 kts | 339° |
| 2026-04-28 23:33 | -34.70106 | -58.57196 | 4212 ft | 164 kts | 341° |
| 2026-04-28 23:33 | -34.68997 | -58.57453 | 4347 ft | 161 kts | 342° |
| 2026-04-28 23:33 | -34.67925 | -58.57715 | 4566 ft | 154 kts | 340° |
| 2026-04-28 23:34 | -34.66839 | -58.58010 | 4430 ft | 169 kts | 339° |
| 2026-04-28 23:34 | -34.65760 | -58.58584 | 4171 ft | 171 kts | 317° |
| 2026-04-28 23:34 | -34.65044 | -58.59695 | 4036 ft | 165 kts | 293° |
| 2026-04-28 23:34 | -34.64574 | -58.60948 | 4038 ft | 164 kts | 292° |
| 2026-04-28 23:35 | -34.64073 | -58.62201 | 4035 ft | 169 kts | 295° |
| 2026-04-28 23:35 | -34.63501 | -58.63476 | 4037 ft | 170 kts | 297° |
| 2026-04-28 23:35 | -34.62926 | -58.64719 | 4022 ft | 172 kts | 297° |
| 2026-04-28 23:35 | -34.62330 | -58.66003 | 3897 ft | 177 kts | 297° |
| 2026-04-28 23:36 | -34.61721 | -58.67318 | 3776 ft | 179 kts | 297° |
| 2026-04-28 23:36 | -34.61112 | -58.68630 | 3657 ft | 175 kts | 297° |
| 2026-04-28 23:36 | -34.60535 | -58.69874 | 3526 ft | 163 kts | 297° |
| 2026-04-28 23:36 | -34.59996 | -58.71038 | 3388 ft | 153 kts | 297° |
| 2026-04-28 23:37 | -34.59489 | -58.72133 | 3150 ft | 146 kts | 297° |
| 2026-04-28 23:37 | -34.58999 | -58.73193 | 2888 ft | 142 kts | 298° |
| 2026-04-28 23:37 | -34.58519 | -58.74229 | 2632 ft | 140 kts | 298° |
| 2026-04-28 23:37 | -34.58051 | -58.75236 | 2530 ft | 131 kts | 298° |
| 2026-04-28 23:38 | -34.57565 | -58.76130 | 2517 ft | 124 kts | 317° |
| 2026-04-28 23:38 | -34.56703 | -58.76298 | 2514 ft | 141 kts | 11° |
| 2026-04-28 23:38 | -34.55985 | -58.75424 | 2516 ft | 159 kts | 64° |
| 2026-04-28 23:38 | -34.55832 | -58.74542 | 2520 ft | 164 kts | 77° |
| 2026-04-28 23:39 | -34.55656 | -58.73146 | 2539 ft | 169 kts | 77° |
| 2026-04-28 23:39 | -34.55471 | -58.71720 | 2536 ft | 173 kts | 76° |
| 2026-04-28 23:39 | -34.55001 | -58.70429 | 2476 ft | 165 kts | 41° |
| 2026-04-28 23:39 | -34.54201 | -58.69425 | 2271 ft | 166 kts | 38° |
| 2026-04-28 23:40 | -34.53391 | -58.68429 | 2048 ft | 165 kts | 37° |
| 2026-04-28 23:40 | -34.52603 | -58.67500 | 1826 ft | 147 kts | 35° |
| 2026-04-28 23:40 | -34.51909 | -58.66680 | 1638 ft | 133 kts | 34° |
| 2026-04-28 23:40 | -34.51267 | -58.65929 | 1463 ft | 123 kts | 34° |
| 2026-04-28 23:41 | -34.50687 | -58.65241 | 1305 ft | 111 kts | 33° |
| 2026-04-28 23:41 | -34.50143 | -58.64606 | 1168 ft | 108 kts | 33° |
| 2026-04-28 23:41 | -34.49594 | -58.63961 | 1023 ft | 111 kts | 33° |
| 2026-04-28 23:41 | -34.49048 | -58.63320 | 890 ft | 108 kts | 36° |
| 2026-04-28 23:42 | -34.48525 | -58.62701 | 745 ft | 103 kts | 39° |
| 2026-04-28 23:42 | -34.48013 | -58.62107 | 637 ft | 101 kts | 40° |
| 2026-04-28 23:42 | -34.47517 | -58.61512 | 508 ft | 99 kts | 39° |
| 2026-04-28 23:42 | -34.47034 | -58.60950 | 417 ft | 95 kts | 39° |
| 2026-04-28 23:43 | -34.46569 | -58.60407 | 265 ft | 91 kts | 43° |
| 2026-04-28 23:43 | -34.46117 | -58.59872 | 126 ft | 91 kts | 41° |
| 2026-04-28 23:43 | -34.45687 | -58.59352 | 22 ft | 74 kts | 45° |
| 2026-04-28 23:43 | -34.45382 | -58.59002 | 22 ft | 51 kts | 45° |
| 2026-04-28 23:44 | -34.45158 | -58.58738 | 22 ft | 39 kts | 46° |
| 2026-04-28 23:44 | -34.44983 | -58.58534 | 21 ft | 31 kts | 46° |
| 2026-04-28 23:44 | -34.44853 | -58.58365 | 21 ft | 23 kts | 78° |
| 2026-04-28 23:44 | -34.44911 | -58.58271 | 21 ft | 9 kts | 147° |
| 2026-04-28 23:45 | -34.44967 | -58.58230 | 21 ft | 9 kts | 149° |
| 2026-04-28 23:45 | -34.45024 | -58.58188 | 21 ft | 10 kts | 148° |
| 2026-04-28 23:45 | -34.45083 | -58.58145 | 21 ft | 10 kts | 148° |
| 2026-04-28 23:45 | -34.45148 | -58.58101 | 21 ft | 12 kts | 151° |
| 2026-04-28 23:46 | -34.45222 | -58.58046 | 21 ft | 12 kts | 149° |
| 2026-04-28 23:46 | -34.45287 | -58.58000 | 21 ft | 2 kts | 149° |
| 2026-04-28 23:46 | -34.45289 | -58.57980 | 22 ft | 4 kts | 60° |
| 2026-04-28 23:46 | -34.45273 | -58.57949 | 21 ft | 5 kts | 56° |
| 2026-04-28 23:47 | -34.45272 | -58.57918 | 22 ft | 4 kts | 147° |
| 2026-04-28 23:47 | -34.45275 | -58.57916 | 21 ft | 0 kts | 150° |